FRB weather

Forbes Airport
Forbes, New South Wales, Australia

Public forecast

Using degrees Celsius for public forecast. Weather courtesy of forecast.io.

Closest aviation weather report (METAR) to Forbes Airport

Closest report is Dubbo City Regional Airport, 76.1 nm (140.9 km) NNE. Retrieved 2020/03/29 14:30 UTC (12 minutes ago):

YSDU 291430Z AUTO 08009KT 9999 // SCT120 20/16 Q1014 RF000/0000

Closest aviation forecast (TAF) to Forbes Airport

Closest forecast is Dubbo City Regional Airport, 76.1 nm (140.9 km) NNE. Retrieved 2020/03/29 12:36 UTC (2 hours ago):

TAF YSDU 291104Z 2912/3006 36010KT 9999 SCT050 FM291800 36012KT 9999 -SHRA SCT015 FM300400 36008KT 9999 NSW SCT040 TEMPO 2918/3003 3000 RA BKN010 PROB30 INTER 2918/3003 VRB20G30KT 2000 TSRA BKN005 SCT050CB